Time;durP1;ratioP1;P1;durP2;ratioP2;P2;SDS_P1;SDS_P2;PMS_P1;PMS_P2;Temp;Humidity;BMP_temperature;BMP_pressure;BME280_temperature;BME280_humidity;BME280_pressure;Samples;Min_cycle;Max_cycle;Signal;HPM_P1;HPM_P2
2023/05/13 00:00:51;;;;;;;6.75;4.90;;;14.90;99.90;;;;;;4169915;28;20036;-73
2023/05/13 00:02:51;;;;;;;6.13;4.90;;;14.90;99.90;;;;;;4173510;28;20052;-73
2023/05/13 00:04:52;;;;;;;6.53;5.50;;;14.90;99.90;;;;;;4172137;28;20294;-73
2023/05/13 00:06:52;;;;;;;9.10;5.25;;;14.90;99.90;;;;;;4174566;28;20095;-73
2023/05/13 00:08:53;;;;;;;7.60;5.88;;;14.80;99.90;;;;;;4171449;28;20045;-73
2023/05/13 00:10:53;;;;;;;7.72;5.57;;;14.80;99.90;;;;;;4173419;28;20032;-73
2023/05/13 00:12:54;;;;;;;7.40;5.40;;;14.70;99.90;;;;;;4174706;28;20853;-73
2023/05/13 00:14:55;;;;;;;6.38;5.28;;;14.70;99.90;;;;;;4176977;28;20047;-73
2023/05/13 00:16:57;;;;;;;6.57;5.10;;;14.70;99.90;;;;;;4168554;28;20125;-73
2023/05/13 00:18:58;;;;;;;6.85;5.05;;;14.60;99.90;;;;;;4172244;28;20400;-73
2023/05/13 00:20:58;;;;;;;6.32;5.10;;;14.60;99.90;;;;;;4170555;28;20033;-72
2023/05/13 00:22:59;;;;;;;8.02;6.03;;;14.60;99.90;;;;;;4170284;28;20116;-72
2023/05/13 00:24:59;;;;;;;5.65;5.00;;;14.50;99.90;;;;;;4170398;28;20369;-73
2023/05/13 00:27:00;;;;;;;6.97;5.30;;;14.60;99.90;;;;;;4171032;28;20060;-73
2023/05/13 00:29:01;;;;;;;7.95;5.10;;;14.50;99.90;;;;;;4169690;28;20107;-72
2023/05/13 00:31:02;;;;;;;7.43;5.40;;;14.50;99.90;;;;;;4173018;28;20032;-73
2023/05/13 00:33:02;;;;;;;6.03;5.25;;;14.50;99.90;;;;;;4173018;28;20490;-73
2023/05/13 00:35:03;;;;;;;7.45;5.68;;;14.60;99.90;;;;;;4170273;28;20025;-73
2023/05/13 00:37:05;;;;;;;9.40;5.32;;;14.50;99.90;;;;;;4169654;28;20506;-73
2023/05/13 00:39:05;;;;;;;6.95;5.32;;;14.50;99.90;;;;;;4169072;28;20029;-73
2023/05/13 00:41:06;;;;;;;7.25;5.75;;;14.50;99.90;;;;;;4169710;28;20044;-73
2023/05/13 00:43:06;;;;;;;6.75;5.53;;;14.50;99.90;;;;;;4175722;28;20033;-73
2023/05/13 00:45:07;;;;;;;8.77;4.93;;;14.50;99.90;;;;;;4174734;28;20037;-73
2023/05/13 00:47:10;;;;;;;5.85;4.80;;;14.50;99.90;;;;;;4168154;28;20389;-71
2023/05/13 00:49:11;;;;;;;6.53;5.00;;;14.50;99.90;;;;;;4171651;28;20577;-72
2023/05/13 00:51:12;;;;;;;7.20;5.15;;;14.50;99.90;;;;;;4176665;28;20142;-72
2023/05/13 00:53:12;;;;;;;5.13;4.22;;;14.50;99.90;;;;;;4174835;28;20033;-72
2023/05/13 00:55:13;;;;;;;4.75;4.00;;;14.40;99.90;;;;;;4169997;28;20171;-72
2023/05/13 00:57:14;;;;;;;5.93;4.88;;;14.40;99.90;;;;;;4172367;28;20160;-73
2023/05/13 00:59:14;;;;;;;6.53;4.90;;;14.40;99.90;;;;;;4172139;28;20043;-73
2023/05/13 01:01:46;;;;;;;6.47;5.05;;;14.30;99.90;;;;;;4174504;28;20124;-73
2023/05/13 01:04:14;;;;;;;6.20;4.95;;;14.20;99.90;;;;;;4167750;28;20077;-73
2023/05/13 01:06:32;;;;;;;6.03;4.85;;;14.20;99.90;;;;;;4171801;28;20468;-73
2023/05/13 01:08:57;;;;;;;7.20;5.20;;;14.20;99.90;;;;;;4177628;28;20074;-73
2023/05/13 01:11:13;;;;;;;8.13;5.05;;;14.20;99.90;;;;;;4173820;28;20102;-73
2023/05/13 01:13:20;;;;;;;6.50;4.57;;;14.20;99.90;;;;;;4176222;28;20033;-73
2023/05/13 01:15:24;;;;;;;5.25;4.50;;;14.20;99.90;;;;;;4174160;28;20580;-73
2023/05/13 01:17:36;;;;;;;6.47;4.50;;;14.20;99.90;;;;;;4174335;28;20099;-73
2023/05/13 01:19:53;;;;;;;5.67;4.47;;;14.20;99.90;;;;;;4175365;28;20044;-73
2023/05/13 01:21:54;;;;;;;6.05;4.57;;;14.20;99.90;;;;;;4175986;28;20032;-73
2023/05/13 01:23:55;;;;;;;8.15;5.20;;;14.10;99.90;;;;;;4173986;28;20067;-72
2023/05/13 01:25:55;;;;;;;6.53;5.05;;;14.20;99.90;;;;;;4174452;28;20036;-73
2023/05/13 01:27:56;;;;;;;7.28;5.28;;;14.20;99.90;;;;;;4173965;28;20037;-73
2023/05/13 01:29:58;;;;;;;7.25;5.18;;;14.20;99.90;;;;;;4173224;28;20066;-73
2023/05/13 01:32:00;;;;;;;6.72;5.00;;;14.20;99.90;;;;;;4169602;28;20039;-74
2023/05/13 01:34:04;;;;;;;5.40;4.30;;;14.20;99.90;;;;;;4171331;28;20045;-73
2023/05/13 01:36:07;;;;;;;7.07;5.15;;;14.20;99.90;;;;;;4171539;28;20033;-73
2023/05/13 01:38:08;;;;;;;5.90;5.05;;;14.20;99.90;;;;;;4178502;28;20064;-73
2023/05/13 01:40:09;;;;;;;5.75;4.53;;;14.20;99.90;;;;;;4168953;28;20045;-70
2023/05/13 01:42:10;;;;;;;7.13;4.80;;;14.20;99.90;;;;;;4174458;28;20043;-71
2023/05/13 01:44:11;;;;;;;7.05;4.30;;;14.20;99.90;;;;;;4176544;28;20570;-72
2023/05/13 01:46:12;;;;;;;7.05;5.07;;;14.20;99.90;;;;;;4173449;28;20056;-73
2023/05/13 01:48:13;;;;;;;6.03;4.63;;;14.20;99.90;;;;;;4174732;28;20079;-72
2023/05/13 01:50:13;;;;;;;5.57;4.25;;;14.20;99.90;;;;;;4174963;28;20395;-73
2023/05/13 01:52:14;;;;;;;7.13;4.32;;;14.20;99.90;;;;;;4172953;28;20047;-73
2023/05/13 01:54:15;;;;;;;6.22;4.32;;;14.20;99.90;;;;;;4173659;28;20063;-73
2023/05/13 01:56:15;;;;;;;5.90;4.68;;;14.20;99.90;;;;;;4174185;28;20132;-73
2023/05/13 01:58:16;;;;;;;8.02;4.55;;;14.20;99.90;;;;;;4169718;28;20157;-73
2023/05/13 02:00:17;;;;;;;5.22;4.13;;;14.20;99.90;;;;;;4173695;28;20545;-73
2023/05/13 02:02:18;;;;;;;5.38;4.25;;;14.20;99.90;;;;;;4173001;28;20098;-73
2023/05/13 02:04:18;;;;;;;6.13;4.65;;;14.20;99.90;;;;;;4178471;28;20064;-73
2023/05/13 02:06:19;;;;;;;5.88;4.43;;;14.20;99.90;;;;;;4174057;28;20041;-73
2023/05/13 02:08:21;;;;;;;6.10;4.28;;;14.20;99.90;;;;;;4173189;28;20041;-73
2023/05/13 02:10:21;;;;;;;5.07;4.30;;;14.20;99.90;;;;;;4171119;28;20484;-73
2023/05/13 02:12:22;;;;;;;5.65;4.50;;;14.10;99.90;;;;;;4177216;28;20048;-73
2023/05/13 02:14:22;;;;;;;6.22;4.47;;;14.10;99.90;;;;;;4177941;28;20045;-74
2023/05/13 02:16:23;;;;;;;6.65;3.90;;;14.10;99.90;;;;;;4172209;28;20037;-73
2023/05/13 02:18:24;;;;;;;5.05;4.18;;;14.10;99.90;;;;;;4174813;28;20158;-73
2023/05/13 02:20:25;;;;;;;6.60;4.13;;;14.10;99.90;;;;;;4173165;28;20074;-73
2023/05/13 02:22:26;;;;;;;5.20;4.45;;;14.10;99.90;;;;;;4174280;28;20059;-73
2023/05/13 02:24:29;;;;;;;5.72;4.38;;;14.10;99.90;;;;;;4175220;28;20036;-73
2023/05/13 02:26:30;;;;;;;5.22;4.07;;;14.10;99.90;;;;;;4175472;28;20041;-73
2023/05/13 02:28:31;;;;;;;5.88;4.65;;;14.00;99.90;;;;;;4170918;28;20538;-73
2023/05/13 02:30:31;;;;;;;5.47;4.25;;;14.00;99.90;;;;;;4170380;28;21335;-73
2023/05/13 02:32:32;;;;;;;6.47;4.35;;;14.00;99.90;;;;;;4172857;28;20077;-74
2023/05/13 02:34:32;;;;;;;7.78;4.28;;;14.00;99.90;;;;;;4178645;28;20440;-73
2023/05/13 02:36:33;;;;;;;8.02;4.43;;;14.00;99.90;;;;;;4172482;28;20029;-73
2023/05/13 02:38:34;;;;;;;8.98;4.63;;;14.00;99.90;;;;;;4171259;28;20135;-73
2023/05/13 02:40:35;;;;;;;5.68;4.20;;;14.00;99.90;;;;;;4169830;28;20045;-73
2023/05/13 02:42:36;;;;;;;5.68;4.00;;;13.90;99.90;;;;;;4170536;28;20045;-73
2023/05/13 02:44:36;;;;;;;5.43;4.28;;;13.90;99.90;;;;;;4173950;28;20037;-73
2023/05/13 02:46:37;;;;;;;4.68;3.90;;;13.90;99.90;;;;;;4174013;28;20063;-73
2023/05/13 02:48:37;;;;;;;5.05;4.43;;;13.90;99.90;;;;;;4176374;28;20091;-73
2023/05/13 02:50:39;;;;;;;5.28;4.10;;;13.90;99.90;;;;;;4178895;28;20049;-72
2023/05/13 02:52:40;;;;;;;5.20;4.23;;;13.90;99.90;;;;;;4171824;28;20036;-71
2023/05/13 02:54:41;;;;;;;7.05;4.32;;;13.90;99.90;;;;;;4170046;28;20033;-73
2023/05/13 02:56:41;;;;;;;5.57;4.45;;;13.80;99.90;;;;;;4171547;28;20625;-74
2023/05/13 02:58:42;;;;;;;5.82;4.28;;;13.80;99.90;;;;;;4172207;28;20765;-74
2023/05/13 03:00:43;;;;;;;5.50;4.30;;;13.80;99.90;;;;;;4170968;28;20045;-73
2023/05/13 03:02:43;;;;;;;4.45;3.40;;;13.80;99.90;;;;;;4170659;28;20032;-73
2023/05/13 03:04:44;;;;;;;8.75;3.95;;;13.80;99.90;;;;;;4171222;28;20033;-73
2023/05/13 03:06:45;;;;;;;5.25;4.30;;;13.80;99.90;;;;;;4168664;28;20052;-73
2023/05/13 03:08:46;;;;;;;4.50;3.75;;;13.70;99.90;;;;;;4169796;28;20512;-73
2023/05/13 03:10:46;;;;;;;5.13;4.32;;;13.80;99.90;;;;;;4171259;28;20029;-73
2023/05/13 03:12:47;;;;;;;5.57;4.68;;;13.70;99.90;;;;;;4168379;28;20091;-73
2023/05/13 03:14:48;;;;;;;6.25;4.15;;;13.60;99.90;;;;;;4174466;28;20033;-73
2023/05/13 03:16:49;;;;;;;7.13;4.18;;;13.50;99.90;;;;;;4164853;28;20056;-73
2023/05/13 03:18:49;;;;;;;6.97;5.25;;;13.40;99.90;;;;;;4171059;28;20069;-73
2023/05/13 03:20:50;;;;;;;5.88;4.55;;;13.30;99.90;;;;;;4166796;28;20402;-72
2023/05/13 03:22:51;;;;;;;4.80;4.10;;;13.30;99.90;;;;;;4173460;28;20041;-73
2023/05/13 03:24:51;;;;;;;6.53;4.93;;;13.30;99.90;;;;;;4171305;28;20048;-73
2023/05/13 03:26:52;;;;;;;7.70;4.53;;;13.40;99.90;;;;;;4171173;28;20452;-73
2023/05/13 03:28:53;;;;;;;5.30;4.45;;;13.40;99.90;;;;;;4170943;28;20036;-73
2023/05/13 03:30:54;;;;;;;4.95;4.18;;;13.40;99.90;;;;;;4174489;28;20037;-73
2023/05/13 03:32:55;;;;;;;5.55;4.68;;;13.40;99.90;;;;;;4170628;28;20066;-73
2023/05/13 03:34:56;;;;;;;4.78;4.10;;;13.40;99.90;;;;;;4172420;28;20090;-74
2023/05/13 03:36:57;;;;;;;6.30;4.40;;;13.40;99.90;;;;;;4171308;28;20044;-73
2023/05/13 03:38:58;;;;;;;6.28;4.53;;;13.40;99.90;;;;;;4171691;28;20439;-74
2023/05/13 03:40:58;;;;;;;4.15;3.75;;;13.40;99.90;;;;;;4172035;28;20041;-73
2023/05/13 03:42:59;;;;;;;5.68;4.55;;;13.40;99.90;;;;;;4171423;28;20049;-74
2023/05/13 03:44:59;;;;;;;5.57;4.05;;;13.40;99.90;;;;;;4176524;28;20040;-74
2023/05/13 03:47:00;;;;;;;5.00;4.13;;;13.40;99.90;;;;;;4168940;28;20222;-74
2023/05/13 03:49:01;;;;;;;4.82;4.00;;;13.50;99.90;;;;;;4172781;28;20525;-74
2023/05/13 03:51:01;;;;;;;5.20;3.67;;;13.50;99.90;;;;;;4174826;28;20032;-73
2023/05/13 03:53:03;;;;;;;6.93;4.10;;;13.50;99.90;;;;;;4174775;28;20037;-74
2023/05/13 03:55:05;;;;;;;5.28;3.85;;;13.50;99.90;;;;;;4170062;28;20037;-74
2023/05/13 03:57:07;;;;;;;6.27;4.90;;;13.50;99.90;;;;;;4169025;28;20036;-73
2023/05/13 03:59:07;;;;;;;6.05;4.95;;;13.50;99.90;;;;;;4168948;28;20341;-73
2023/05/13 04:01:08;;;;;;;7.30;4.57;;;13.50;99.90;;;;;;4168488;28;20021;-74
2023/05/13 04:03:09;;;;;;;7.43;4.82;;;13.50;99.90;;;;;;4168864;28;20421;-73
2023/05/13 04:05:12;;;;;;;7.93;4.63;;;13.50;99.90;;;;;;4169907;28;20071;-73
2023/05/13 04:07:12;;;;;;;6.35;4.60;;;13.40;99.90;;;;;;4169581;28;20029;-73
2023/05/13 04:09:13;;;;;;;6.30;4.53;;;13.40;99.90;;;;;;4171157;28;20036;-73
2023/05/13 04:11:14;;;;;;;4.75;4.05;;;13.50;99.90;;;;;;4170102;28;20640;-74
2023/05/13 04:13:14;;;;;;;4.40;3.83;;;13.40;99.90;;;;;;4170222;28;20383;-74
2023/05/13 04:15:15;;;;;;;5.20;4.00;;;13.40;99.90;;;;;;4167096;28;20033;-73
2023/05/13 04:17:16;;;;;;;5.22;4.45;;;13.40;99.90;;;;;;4170356;28;20040;-72
2023/05/13 04:19:17;;;;;;;5.40;4.30;;;13.40;99.90;;;;;;4172694;28;20055;-74
2023/05/13 04:21:17;;;;;;;5.18;4.53;;;13.40;99.90;;;;;;4172142;28;20045;-72
2023/05/13 04:23:18;;;;;;;6.15;4.80;;;13.40;99.90;;;;;;4170434;28;20033;-73
2023/05/13 04:25:18;;;;;;;7.80;4.82;;;13.40;99.90;;;;;;4169508;28;20813;-73
2023/05/13 04:27:19;;;;;;;6.47;4.68;;;13.40;99.90;;;;;;4171407;28;20504;-73
2023/05/13 04:29:19;;;;;;;5.35;4.20;;;13.40;99.90;;;;;;4172547;28;20068;-74
2023/05/13 04:31:20;;;;;;;5.22;4.15;;;13.40;99.90;;;;;;4170561;28;20456;-74
2023/05/13 04:33:21;;;;;;;7.22;4.32;;;13.40;99.90;;;;;;4173302;28;20049;-74
2023/05/13 04:35:22;;;;;;;5.57;4.43;;;13.40;99.90;;;;;;4176521;28;20033;-73
2023/05/13 04:37:22;;;;;;;6.22;4.13;;;13.40;99.90;;;;;;4177579;28;20040;-73
2023/05/13 04:39:23;;;;;;;5.18;4.40;;;13.40;99.90;;;;;;4176169;28;20111;-74
2023/05/13 04:41:23;;;;;;;5.10;4.10;;;13.40;99.90;;;;;;4174101;28;20089;-65
2023/05/13 04:43:24;;;;;;;5.50;4.40;;;13.40;99.90;;;;;;4175002;28;20029;-65
2023/05/13 04:45:24;;;;;;;7.22;4.95;;;13.40;99.90;;;;;;4172277;28;20594;-65
2023/05/13 04:47:25;;;;;;;5.70;4.43;;;13.40;99.90;;;;;;4170877;28;20712;-64
2023/05/13 04:49:26;;;;;;;5.78;4.30;;;13.40;99.90;;;;;;4172824;28;20037;-65
2023/05/13 04:51:26;;;;;;;6.05;4.55;;;13.40;99.90;;;;;;4172125;28;20396;-65
2023/05/13 04:53:27;;;;;;;7.35;5.22;;;13.50;99.90;;;;;;4172259;28;20103;-65
2023/05/13 04:55:27;;;;;;;7.38;4.85;;;13.40;99.90;;;;;;4173478;28;20047;-65
2023/05/13 04:57:28;;;;;;;6.70;4.60;;;13.50;99.90;;;;;;4174163;28;21036;-65
2023/05/13 04:59:29;;;;;;;7.30;4.90;;;13.50;99.90;;;;;;4174206;28;20068;-65
2023/05/13 05:01:29;;;;;;;6.13;4.45;;;13.50;99.90;;;;;;4171289;28;20033;-65
2023/05/13 05:03:30;;;;;;;6.00;5.03;;;13.50;99.90;;;;;;4173928;28;20033;-65
2023/05/13 05:05:30;;;;;;;6.80;4.45;;;13.50;99.90;;;;;;4168534;28;20348;-65
2023/05/13 05:07:31;;;;;;;7.47;4.75;;;13.60;99.90;;;;;;4176049;28;20192;-65
2023/05/13 05:09:31;;;;;;;8.73;5.00;;;13.60;99.90;;;;;;4174718;28;20068;-65
2023/05/13 05:11:32;;;;;;;5.70;4.32;;;13.60;99.90;;;;;;4172724;28;20104;-65
2023/05/13 05:13:33;;;;;;;7.40;4.80;;;13.60;99.90;;;;;;4170943;28;20079;-65
2023/05/13 05:15:33;;;;;;;6.10;4.88;;;13.60;99.90;;;;;;4173041;28;20288;-65
2023/05/13 05:17:34;;;;;;;8.48;4.88;;;13.70;99.90;;;;;;4174152;28;20021;-65
2023/05/13 05:19:34;;;;;;;7.82;4.75;;;13.60;99.90;;;;;;4169821;28;20064;-65
2023/05/13 05:21:36;;;;;;;4.90;4.15;;;13.70;99.90;;;;;;4172275;28;20041;-65
2023/05/13 05:23:36;;;;;;;5.18;4.68;;;13.70;99.90;;;;;;4167987;28;20075;-65
2023/05/13 05:25:37;;;;;;;6.32;4.70;;;13.70;99.90;;;;;;4173861;28;20487;-65
2023/05/13 05:27:37;;;;;;;7.25;5.18;;;13.80;99.90;;;;;;4174837;28;20025;-66
2023/05/13 05:29:38;;;;;;;6.20;5.18;;;13.80;99.90;;;;;;4170321;28;20082;-65
2023/05/13 05:31:39;;;;;;;5.97;5.15;;;13.90;99.90;;;;;;4173023;28;20488;-66
2023/05/13 05:33:40;;;;;;;5.43;4.80;;;13.90;99.90;;;;;;4173567;28;20503;-65
2023/05/13 05:35:40;;;;;;;7.28;5.45;;;13.90;99.90;;;;;;4169299;28;20037;-65
2023/05/13 05:37:41;;;;;;;7.20;5.60;;;14.00;99.90;;;;;;4174001;28;20036;-65
2023/05/13 05:39:41;;;;;;;6.82;5.38;;;14.00;99.90;;;;;;4171992;28;20044;-65
2023/05/13 05:41:42;;;;;;;6.93;4.93;;;14.00;99.90;;;;;;4175162;28;20120;-65
2023/05/13 05:43:42;;;;;;;6.60;5.22;;;14.00;99.90;;;;;;4169596;28;20051;-66
2023/05/13 05:45:43;;;;;;;7.32;5.35;;;14.10;99.90;;;;;;4171276;28;20043;-68
2023/05/13 05:47:44;;;;;;;7.70;5.13;;;14.10;99.90;;;;;;4171763;28;20095;-67
2023/05/13 05:49:45;;;;;;;6.47;4.88;;;14.10;99.90;;;;;;4171055;28;20465;-66
2023/05/13 05:51:45;;;;;;;8.02;5.18;;;14.20;99.90;;;;;;4168361;28;20578;-66
2023/05/13 05:53:46;;;;;;;7.95;5.00;;;14.20;99.90;;;;;;4169849;28;20072;-66
2023/05/13 05:55:47;;;;;;;7.10;5.38;;;14.30;99.90;;;;;;4173318;28;20083;-66
2023/05/13 05:57:47;;;;;;;7.78;5.63;;;14.30;99.90;;;;;;4169648;28;20147;-65
2023/05/13 05:59:48;;;;;;;7.07;5.85;;;14.40;99.90;;;;;;4171437;28;20084;-66
2023/05/13 06:01:49;;;;;;;6.90;5.80;;;14.40;99.90;;;;;;4169215;28;20037;-66
2023/05/13 06:03:49;;;;;;;6.30;5.50;;;14.40;99.90;;;;;;4175371;28;20641;-65
2023/05/13 06:05:50;;;;;;;8.68;5.50;;;14.50;99.90;;;;;;4170514;28;20479;-65
2023/05/13 06:07:50;;;;;;;6.80;5.00;;;14.60;99.90;;;;;;4168195;28;20269;-66
2023/05/13 06:09:51;;;;;;;7.65;5.97;;;14.60;99.90;;;;;;4173027;28;20037;-66
2023/05/13 06:11:52;;;;;;;9.30;5.25;;;14.80;99.90;;;;;;4170483;28;20092;-66
2023/05/13 06:13:53;;;;;;;9.43;6.28;;;15.00;99.90;;;;;;4176703;28;20524;-65
2023/05/13 06:15:53;;;;;;;6.88;5.22;;;15.30;99.90;;;;;;4167717;28;20033;-65
2023/05/13 06:17:54;;;;;;;6.22;4.88;;;15.60;99.90;;;;;;4171475;28;20060;-66
2023/05/13 06:19:54;;;;;;;9.73;5.47;;;16.00;99.90;;;;;;4172291;28;20045;-65
2023/05/13 06:21:55;;;;;;;6.95;5.47;;;16.40;99.90;;;;;;4175923;28;20040;-66
2023/05/13 06:23:56;;;;;;;7.18;5.13;;;16.80;99.90;;;;;;4174327;28;20499;-66
2023/05/13 06:25:58;;;;;;;6.35;4.97;;;17.20;99.90;;;;;;4173438;28;20076;-66
2023/05/13 06:27:58;;;;;;;9.68;5.32;;;17.50;99.90;;;;;;4174556;28;20109;-66
2023/05/13 06:29:59;;;;;;;6.78;4.95;;;17.80;99.90;;;;;;4175477;28;20495;-66
2023/05/13 06:32:00;;;;;;;7.60;4.70;;;18.20;99.90;;;;;;4166886;28;20127;-66
2023/05/13 06:34:00;;;;;;;7.63;4.80;;;18.50;99.90;;;;;;4170641;28;21786;-66
2023/05/13 06:36:01;;;;;;;5.07;3.85;;;18.80;99.90;;;;;;4172189;28;20412;-67
2023/05/13 06:38:02;;;;;;;5.78;4.13;;;19.10;99.90;;;;;;4178036;28;20095;-67
2023/05/13 06:40:03;;;;;;;5.47;4.60;;;19.40;99.90;;;;;;4171413;28;20757;-67
2023/05/13 06:42:04;;;;;;;6.05;3.72;;;19.70;99.90;;;;;;4169803;28;20053;-67
2023/05/13 06:44:05;;;;;;;4.72;3.85;;;20.00;99.90;;;;;;4165792;28;20506;-66
2023/05/13 06:46:06;;;;;;;5.28;4.20;;;20.20;99.90;;;;;;4170255;28;20033;-67
2023/05/13 06:48:07;;;;;;;6.75;4.13;;;20.30;99.90;;;;;;4167093;28;20325;-67
2023/05/13 06:50:08;;;;;;;8.23;4.20;;;20.50;99.90;;;;;;4176953;28;20024;-67
2023/05/13 06:52:09;;;;;;;4.47;3.67;;;20.50;99.90;;;;;;4173239;28;20041;-68
2023/05/13 06:54:09;;;;;;;4.95;3.90;;;20.60;99.90;;;;;;4174285;28;20044;-68
2023/05/13 06:56:10;;;;;;;4.65;3.75;;;20.70;99.90;;;;;;4171073;28;20037;-67
2023/05/13 06:58:11;;;;;;;4.22;3.20;;;20.80;99.90;;;;;;4173809;28;20312;-67
2023/05/13 07:00:12;;;;;;;6.07;3.58;;;20.90;99.90;;;;;;4170024;28;20037;-69
2023/05/13 07:02:13;;;;;;;3.83;3.42;;;21.00;99.90;;;;;;4167581;28;21422;-71
2023/05/13 07:04:14;;;;;;;5.47;3.53;;;21.10;99.90;;;;;;4176923;28;20060;-70
2023/05/13 07:06:14;;;;;;;5.95;3.65;;;21.10;99.90;;;;;;4168744;28;20410;-71
2023/05/13 07:08:16;;;;;;;4.65;2.88;;;21.10;99.90;;;;;;4173618;28;20256;-71
2023/05/13 07:10:17;;;;;;;4.55;3.65;;;21.20;99.90;;;;;;4156790;28;20045;-71
2023/05/13 07:12:18;;;;;;;8.95;3.50;;;21.30;99.90;;;;;;4169941;28;20049;-71
2023/05/13 07:14:18;;;;;;;5.80;3.10;;;21.30;99.90;;;;;;4176699;28;20080;-70
2023/05/13 07:16:19;;;;;;;4.85;3.45;;;21.40;99.90;;;;;;4172832;28;20041;-71
2023/05/13 07:18:20;;;;;;;4.88;4.05;;;21.40;99.90;;;;;;4172885;28;20064;-72
2023/05/13 07:20:21;;;;;;;4.45;3.25;;;21.40;99.90;;;;;;4168841;28;20049;-71
2023/05/13 07:22:22;;;;;;;4.15;3.17;;;21.50;99.90;;;;;;4169634;28;20048;-72
2023/05/13 07:24:23;;;;;;;4.70;3.60;;;21.50;99.90;;;;;;4168158;28;20040;-72
2023/05/13 07:26:23;;;;;;;5.35;3.75;;;21.60;99.90;;;;;;4174839;28;20128;-72
2023/05/13 07:28:24;;;;;;;5.03;3.88;;;21.50;99.90;;;;;;4168519;28;20052;-71
2023/05/13 07:30:25;;;;;;;6.00;3.75;;;21.60;99.90;;;;;;4171446;28;20051;-72
2023/05/13 07:32:27;;;;;;;6.10;4.43;;;21.30;99.90;;;;;;4171522;28;20070;-71
2023/05/13 07:34:28;;;;;;;;;;;21.10;99.90;;;;;;4172774;28;20037;-71
2023/05/13 07:36:28;;;;;;;4.95;4.05;;;21.10;99.90;;;;;;4171258;28;19917;-72
2023/05/13 07:38:29;;;;;;;5.78;3.40;;;21.00;99.90;;;;;;4170632;28;20044;-71
2023/05/13 07:40:29;;;;;;;5.85;4.05;;;21.10;99.90;;;;;;4168724;28;21013;-71
2023/05/13 07:42:30;;;;;;;7.30;3.90;;;21.10;99.90;;;;;;4179353;28;20029;-71
2023/05/13 07:44:31;;;;;;;5.35;3.53;;;21.20;99.90;;;;;;4173090;28;20036;-71
2023/05/13 07:46:31;;;;;;;4.72;3.55;;;21.30;99.90;;;;;;4169451;28;20450;-71
2023/05/13 07:48:32;;;;;;;5.65;3.60;;;21.30;99.90;;;;;;4169530;28;20133;-71
2023/05/13 07:50:33;;;;;;;3.78;2.90;;;21.50;99.90;;;;;;4168908;28;20029;-71
2023/05/13 07:52:34;;;;;;;5.97;3.45;;;21.50;99.90;;;;;;4172489;28;22537;-71
2023/05/13 07:54:34;;;;;;;6.55;4.32;;;21.50;99.90;;;;;;4171055;28;20049;-71
2023/05/13 07:56:36;;;;;;;5.07;3.90;;;21.40;99.90;;;;;;4163100;28;20033;-71
2023/05/13 07:58:37;;;;;;;4.45;3.28;;;21.40;99.90;;;;;;4167301;28;20458;-71
2023/05/13 08:00:38;;;;;;;5.32;4.03;;;21.40;99.90;;;;;;4177196;28;20041;-71
2023/05/13 08:02:41;;;;;;;7.10;4.18;;;21.40;99.90;;;;;;4171819;28;20037;-71
2023/05/13 08:04:42;;;;;;;5.30;3.95;;;21.40;99.90;;;;;;4169729;28;20040;-71
2023/05/13 08:06:42;;;;;;;4.55;3.45;;;21.30;99.90;;;;;;4171401;28;20033;-71
2023/05/13 08:08:43;;;;;;;6.15;3.75;;;21.20;99.90;;;;;;4168378;28;20044;-70
2023/05/13 08:10:43;;;;;;;5.78;3.92;;;21.40;99.90;;;;;;4173359;28;20433;-70
2023/05/13 08:12:49;;;;;;;7.20;4.25;;;21.40;99.90;;;;;;4166933;28;20527;-70
2023/05/13 08:14:50;;;;;;;7.68;3.63;;;21.30;99.90;;;;;;4167132;28;20175;-71
2023/05/13 08:16:50;;;;;;;6.28;3.53;;;21.30;99.90;;;;;;4171129;28;20735;-70
2023/05/13 08:18:51;;;;;;;5.63;3.63;;;21.40;99.90;;;;;;4172911;28;20056;-71
2023/05/13 08:20:52;;;;;;;7.35;3.83;;;21.50;99.90;;;;;;4169081;28;20396;-70
2023/05/13 08:22:52;;;;;;;4.60;3.72;;;21.60;99.90;;;;;;4170411;28;20115;-71
2023/05/13 08:24:53;;;;;;;5.47;3.42;;;21.70;99.90;;;;;;4170965;28;20215;-71
2023/05/13 08:26:53;;;;;;;4.90;3.60;;;21.70;99.90;;;;;;4167540;28;20056;-71
2023/05/13 08:28:56;;;;;;;6.25;3.20;;;21.80;99.90;;;;;;4167116;28;20041;-71
2023/05/13 08:31:01;;;;;;;4.90;3.15;;;22.00;99.90;;;;;;4168752;28;20040;-70
2023/05/13 08:33:01;;;;;;;6.97;3.65;;;22.10;99.90;;;;;;4169368;28;20087;-70
2023/05/13 08:35:02;;;;;;;3.58;3.08;;;22.10;99.90;;;;;;4169967;28;20447;-70
2023/05/13 08:37:03;;;;;;;3.53;3.20;;;22.20;99.90;;;;;;4167860;28;20098;-70
2023/05/13 08:39:04;;;;;;;4.53;3.30;;;22.30;99.90;;;;;;4169168;28;20037;-71
2023/05/13 08:41:07;;;;;;;4.85;3.80;;;22.40;99.90;;;;;;4171512;28;21013;-71
2023/05/13 08:43:13;;;;;;;5.47;3.20;;;22.10;99.90;;;;;;4174628;28;20037;-70
2023/05/13 08:45:15;;;;;;;6.32;4.47;;;22.10;99.90;;;;;;4171786;28;20033;-71
2023/05/13 08:47:25;;;;;;;4.15;3.22;;;22.00;99.90;;;;;;4178170;28;20037;-70
2023/05/13 08:49:26;;;;;;;4.80;3.58;;;22.10;99.90;;;;;;4171583;28;20047;-70
2023/05/13 08:51:26;;;;;;;4.25;3.50;;;22.20;99.90;;;;;;4173726;28;20494;-70
2023/05/13 08:53:28;;;;;;;5.57;3.80;;;22.20;99.90;;;;;;4172198;28;20653;-70
2023/05/13 08:55:28;;;;;;;4.28;3.00;;;22.30;99.90;;;;;;4172666;28;20614;-69
2023/05/13 08:57:29;;;;;;;4.30;3.47;;;22.40;99.90;;;;;;4175308;28;20136;-70
2023/05/13 08:59:30;;;;;;;3.60;2.75;;;22.40;99.90;;;;;;4174353;28;20096;-70
2023/05/13 09:01:31;;;;;;;3.85;3.10;;;22.50;99.90;;;;;;4167658;28;20484;-70
2023/05/13 09:03:33;;;;;;;4.70;2.90;;;22.60;99.90;;;;;;4169244;28;20033;-70
2023/05/13 09:05:35;;;;;;;3.63;2.78;;;22.70;99.90;;;;;;4170791;28;20084;-70
2023/05/13 09:07:37;;;;;;;4.00;3.30;;;22.80;99.90;;;;;;4169663;28;20051;-70
2023/05/13 09:09:38;;;;;;;6.63;3.53;;;22.90;99.90;;;;;;4169718;28;20057;-70
2023/05/13 09:11:39;;;;;;;3.55;2.50;;;22.90;99.90;;;;;;4171106;28;20476;-71
2023/05/13 09:13:43;;;;;;;3.78;2.80;;;23.00;99.90;;;;;;4169999;28;20033;-71
2023/05/13 09:15:44;;;;;;;4.80;3.22;;;22.90;99.90;;;;;;4173868;28;20032;-71
2023/05/13 09:17:53;;;;;;;6.03;3.25;;;23.00;99.90;;;;;;4168816;28;20111;-71
2023/05/13 09:19:53;;;;;;;7.63;3.17;;;22.80;99.90;;;;;;4175927;28;20052;-71
2023/05/13 09:21:55;;;;;;;4.55;3.28;;;22.80;99.90;;;;;;4172927;28;20037;-70
2023/05/13 09:24:09;;;;;;;7.40;2.92;;;22.70;99.90;;;;;;4174087;28;20037;-71
2023/05/13 09:26:27;;;;;;;3.53;2.50;;;22.50;99.90;;;;;;4171117;28;20032;-70
2023/05/13 09:28:27;;;;;;;4.47;3.17;;;22.60;99.90;;;;;;4172719;28;20127;-70
2023/05/13 09:30:31;;;;;;;4.43;2.88;;;22.60;99.90;;;;;;4175717;28;20041;-70
2023/05/13 09:32:32;;;;;;;4.47;2.75;;;22.70;99.90;;;;;;4170000;28;21040;-70
2023/05/13 09:34:34;;;;;;;5.40;2.85;;;22.80;99.90;;;;;;4171563;28;20041;-69
2023/05/13 09:36:34;;;;;;;4.50;3.20;;;22.90;99.90;;;;;;4179738;28;20033;-70
2023/05/13 09:38:38;;;;;;;3.58;3.10;;;23.00;99.90;;;;;;4175398;28;20122;-70
2023/05/13 09:40:38;;;;;;;3.47;2.50;;;23.00;99.90;;;;;;4172714;28;20044;-70
2023/05/13 09:42:41;;;;;;;3.85;2.80;;;23.10;99.90;;;;;;4169173;28;20044;-69
2023/05/13 09:44:46;;;;;;;5.15;3.63;;;23.20;99.90;;;;;;4170095;28;20753;-69
2023/05/13 09:46:47;;;;;;;4.20;3.22;;;23.30;99.90;;;;;;4170776;28;20033;-69
2023/05/13 09:48:52;;;;;;;4.43;3.00;;;23.40;99.90;;;;;;4166260;28;20525;-70
2023/05/13 09:50:55;;;;;;;4.82;3.05;;;23.40;99.90;;;;;;4173689;28;20100;-70
2023/05/13 09:52:55;;;;;;;8.98;3.10;;;23.50;99.90;;;;;;4176044;28;20117;-69
2023/05/13 09:54:57;;;;;;;4.22;3.47;;;23.50;99.90;;;;;;4169220;28;20799;-70
2023/05/13 09:57:00;;;;;;;3.75;2.88;;;23.60;99.90;;;;;;4173591;28;20041;-69
2023/05/13 09:59:02;;;;;;;4.35;3.30;;;23.70;99.90;;;;;;4169706;28;20056;-70
2023/05/13 10:01:03;;;;;;;4.53;2.92;;;23.70;99.90;;;;;;4168373;28;20059;-72
2023/05/13 10:03:04;;;;;;;4.85;3.33;;;23.70;99.90;;;;;;4173296;28;20553;-72
2023/05/13 10:05:07;;;;;;;3.45;2.70;;;23.70;99.90;;;;;;4172289;28;20033;-71
2023/05/13 10:07:10;;;;;;;4.47;2.47;;;23.80;99.90;;;;;;4172364;28;20422;-71
2023/05/13 10:09:11;;;;;;;5.15;3.00;;;23.80;99.90;;;;;;4171602;28;20538;-72
2023/05/13 10:11:14;;;;;;;4.93;3.30;;;23.60;99.90;;;;;;4175785;28;20037;-71
2023/05/13 10:13:16;;;;;;;3.70;2.83;;;23.70;99.90;;;;;;4174088;28;20036;-72
2023/05/13 10:15:18;;;;;;;5.32;2.58;;;23.70;99.90;;;;;;4170127;28;21268;-70
2023/05/13 10:17:20;;;;;;;4.78;2.63;;;23.70;99.90;;;;;;4170968;28;20044;-71
2023/05/13 10:19:23;;;;;;;4.35;2.97;;;23.70;99.90;;;;;;4171717;28;20128;-71
2023/05/13 10:21:28;;;;;;;6.18;3.45;;;23.50;99.60;;;;;;4174815;28;20045;-71
2023/05/13 10:23:30;;;;;;;5.93;2.75;;;23.20;96.70;;;;;;4171977;28;20033;-71
2023/05/13 10:25:32;;;;;;;2.92;2.25;;;23.30;99.60;;;;;;4173490;28;20029;-71
2023/05/13 10:27:33;;;;;;;3.00;2.40;;;23.20;99.10;;;;;;4174063;28;20060;-72
2023/05/13 10:29:37;;;;;;;3.53;2.25;;;23.30;99.80;;;;;;4175875;28;20119;-71
2023/05/13 10:31:39;;;;;;;4.75;2.38;;;23.30;99.10;;;;;;4169199;28;20531;-71
2023/05/13 10:33:40;;;;;;;4.93;2.33;;;23.50;99.50;;;;;;4177734;28;20032;-71